KMLU/MLU METAR and TAF weather

Enter ICAO airport designator
Station Type Date Time Source
KMLU METAR 2019/06/27 07:53 UTC NOAA

KMLU 270753Z AUTO 02004KT 10SM CLR 23/22 A3014 RMK AO2 SLP206 T02330217


Station Type Date Time Source
KMLU Decoded METAR 2019/06/27 07:53 UTC NOAA

MONROE REGIONAL AIRPORT, LA, United States (KMLU) 32-31N 092-02W 29M
Jun 27, 2019 - 03:53 AM EDT / 2019.06.27 0753 UTC
Wind: from the NNE (020 degrees) at 5 MPH (4 KT):0
Visibility: 10 mile(s):0
Sky conditions: clear
Temperature: 73.9 F (23.3 C)
Dew Point: 71.1 F (21.7 C)
Relative Humidity: 90%
Pressure (altimeter): 30.14 in. Hg (1020 hPa)
ob: KMLU 270753Z AUTO 02004KT 10SM CLR 23/22 A3014 RMK AO2 SLP206 T02330217
cycle: 8

Station Type Date Time Source
KMLU TAF 2019/06/27 06:21 UTC NOAA

TAF KMLU 270520Z 2706/2806 18004KT P6SM SKC
FM271500 VRB05KT P6SM SCT250

Example: see airport list